Time;durP1;ratioP1;P1;durP2;ratioP2;P2;SDS_P1;SDS_P2;PMS_P1;PMS_P2;Temp;Humidity;BMP_temperature;BMP_pressure;BME280_temperature;BME280_humidity;BME280_pressure;Samples;Min_cycle;Max_cycle;Signal;HPM_P1;HPM_P2
2022/06/29 00:02:31;;;;;;;1.30;0.60;;;17.80;99.90;;;;;;20625560;28;20038;-81
2022/06/29 00:12:32;;;;;;;1.85;0.32;;;17.80;99.90;;;;;;20634623;28;20489;-81
2022/06/29 00:22:35;;;;;;;1.20;0.40;;;17.70;99.90;;;;;;20643585;28;20287;-81
2022/06/29 00:32:37;;;;;;;1.05;0.50;;;17.60;99.90;;;;;;20650217;28;20528;-81
2022/06/29 00:42:39;;;;;;;1.88;0.65;;;17.50;99.90;;;;;;20665371;28;20049;-81
2022/06/29 00:52:42;;;;;;;0.85;0.35;;;17.40;99.90;;;;;;20670410;28;20042;-82
2022/06/29 01:02:44;;;;;;;1.40;0.85;;;17.30;99.90;;;;;;20652758;28;20045;-82
2022/06/29 01:12:48;;;;;;;0.63;0.25;;;17.20;99.90;;;;;;20677494;28;20501;-82
2022/06/29 01:22:51;;;;;;;0.60;0.30;;;17.20;99.90;;;;;;20649877;28;20061;-82
2022/06/29 01:32:52;;;;;;;1.70;0.45;;;17.10;99.90;;;;;;20657198;28;20030;-82
2022/06/29 01:42:56;;;;;;;0.98;0.38;;;17.10;99.90;;;;;;20670719;28;20142;-82
2022/06/29 01:52:59;;;;;;;0.70;0.30;;;17.20;99.90;;;;;;20639314;28;20042;-82
2022/06/29 02:03:00;;;;;;;1.05;0.40;;;17.20;99.90;;;;;;20639054;28;20042;-80
2022/06/29 02:13:01;;;;;;;1.10;0.40;;;17.20;99.90;;;;;;20702882;28;20085;-80
2022/06/29 02:23:02;;;;;;;1.73;0.60;;;17.10;99.90;;;;;;20619610;28;20038;-80
2022/06/29 02:43:22;;;;;;;0.95;0.47;;;16.80;99.90;;;;;;20645498;28;20045;-82
2022/06/29 02:53:25;;;;;;;1.13;0.40;;;16.80;99.90;;;;;;20621559;28;20046;-83
2022/06/29 03:03:26;;;;;;;0.90;0.40;;;16.60;99.90;;;;;;20627626;28;20046;-83
2022/06/29 03:13:27;;;;;;;2.10;0.85;;;16.50;99.90;;;;;;20659638;28;20046;-83
2022/06/29 03:23:29;;;;;;;0.88;0.50;;;16.40;99.90;;;;;;20669269;28;20041;-83
2022/06/29 03:33:30;;;;;;;1.65;0.60;;;16.30;99.90;;;;;;20682293;28;20061;-83
2022/06/29 03:43:31;;;;;;;1.27;0.50;;;16.30;99.90;;;;;;20654639;28;20145;-83
2022/06/29 03:53:32;;;;;;;0.85;0.40;;;16.20;99.90;;;;;;20649443;28;20043;-83
2022/06/29 04:03:33;;;;;;;1.45;0.70;;;16.10;99.90;;;;;;20645834;28;20034;-83
2022/06/29 04:13:35;;;;;;;2.38;0.60;;;16.00;99.90;;;;;;20619906;28;20057;-83
2022/06/29 04:23:36;;;;;;;1.45;0.80;;;16.10;99.90;;;;;;20623637;28;20050;-83
2022/06/29 04:33:37;;;;;;;1.83;0.68;;;16.00;99.90;;;;;;20622885;28;20050;-82
2022/06/29 04:43:38;;;;;;;2.00;0.90;;;16.10;99.90;;;;;;20653251;28;20042;-83
2022/06/29 04:53:39;;;;;;;1.77;0.70;;;16.30;99.90;;;;;;20667425;28;20425;-82
2022/06/29 05:03:41;;;;;;;2.92;1.17;;;16.60;99.90;;;;;;20649713;28;20057;-82
2022/06/29 05:13:44;;;;;;;1.50;0.60;;;17.00;99.90;;;;;;20640649;28;20050;-81
2022/06/29 05:23:47;;;;;;;1.77;0.77;;;17.50;99.90;;;;;;20653068;28;20044;-81
2022/06/29 05:33:48;;;;;;;2.17;0.85;;;17.80;99.90;;;;;;20667824;28;20042;-82
2022/06/29 05:43:51;;;;;;;1.67;0.57;;;18.10;99.90;;;;;;20654340;28;20480;-82
2022/06/29 05:53:52;;;;;;;1.80;0.70;;;18.30;99.90;;;;;;20650782;28;20046;-82
2022/06/29 06:03:53;;;;;;;1.60;0.88;;;18.70;99.90;;;;;;20660625;28;20041;-81
2022/06/29 06:13:54;;;;;;;2.95;0.98;;;19.00;99.90;;;;;;20647889;28;20881;-82
2022/06/29 06:23:55;;;;;;;2.40;0.80;;;19.40;99.90;;;;;;20667539;28;20622;-81
2022/06/29 06:33:57;;;;;;;2.47;0.80;;;19.70;99.90;;;;;;20644974;28;21501;-81
2022/06/29 06:44:00;;;;;;;1.45;0.88;;;19.90;99.90;;;;;;20651940;28;20045;-81
2022/06/29 06:54:01;;;;;;;1.50;0.70;;;20.10;99.90;;;;;;20668849;28;20064;-81
2022/06/29 07:04:02;;;;;;;1.95;0.73;;;20.30;99.90;;;;;;20679822;28;20524;-81
2022/06/29 07:14:03;;;;;;;1.85;0.90;;;20.80;99.90;;;;;;20697043;28;20374;-81
2022/06/29 07:24:04;;;;;;;1.48;0.60;;;21.00;99.90;;;;;;20686086;28;20039;-81
2022/06/29 07:34:05;;;;;;;1.90;0.73;;;21.30;99.90;;;;;;20685335;28;20070;-80
2022/06/29 07:44:06;;;;;;;1.30;0.60;;;21.70;99.90;;;;;;20687844;28;20049;-80
2022/06/29 07:54:07;;;;;;;0.95;0.50;;;22.10;99.90;;;;;;20621809;28;20983;-82
2022/06/29 08:04:08;;;;;;;1.02;0.45;;;22.40;99.90;;;;;;20679172;28;20057;-80
2022/06/29 08:14:10;;;;;;;1.08;0.52;;;22.70;99.90;;;;;;20638520;28;20406;-81
2022/06/29 08:24:11;;;;;;;1.08;0.50;;;23.10;99.90;;;;;;20668103;28;20144;-81
2022/06/29 08:34:15;;;;;;;1.40;0.40;;;23.50;99.90;;;;;;20589368;28;1289441;-81
2022/06/29 08:44:17;;;;;;;1.23;0.77;;;23.90;99.90;;;;;;20687992;28;20068;-81
2022/06/29 08:54:21;;;;;;;0.57;0.30;;;24.30;99.90;;;;;;20536710;28;20046;-81
2022/06/29 09:04:22;;;;;;;1.60;0.45;;;24.60;99.90;;;;;;20555440;28;20315;-82
2022/06/29 09:14:25;;;;;;;1.30;0.60;;;24.90;99.90;;;;;;20535471;28;20057;-81
2022/06/29 09:24:34;;;;;;;0.95;0.60;;;25.10;99.90;;;;;;20552163;28;20049;-81
2022/06/29 09:34:43;;;;;;;1.83;0.60;;;25.20;99.90;;;;;;20554408;28;20053;-82
2022/06/29 09:44:46;;;;;;;1.77;0.63;;;25.20;99.90;;;;;;20549498;28;20038;-80
2022/06/29 09:54:52;;;;;;;1.20;0.50;;;25.70;99.90;;;;;;20592559;28;20248;-81
2022/06/29 10:04:53;;;;;;;6.50;0.77;;;25.90;98.90;;;;;;20601338;28;20064;-80
2022/06/29 10:15:13;;;;;;;0.93;0.50;;;26.10;99.20;;;;;;20559422;28;20045;-80
2022/06/29 10:25:14;;;;;;;0.70;0.40;;;26.40;99.40;;;;;;20588987;28;20628;-80
2022/06/29 10:35:15;;;;;;;1.30;0.77;;;26.70;98.20;;;;;;20543023;28;20146;-80
2022/06/29 10:45:21;;;;;;;13.95;0.68;;;26.70;99.00;;;;;;20617734;28;20617;-81
2022/06/29 10:55:28;;;;;;;0.95;0.50;;;27.00;98.00;;;;;;20611164;28;20057;-80
2022/06/29 11:05:33;;;;;;;0.93;0.30;;;27.30;98.60;;;;;;20596987;28;20034;-80
2022/06/29 11:15:42;;;;;;;1.20;0.57;;;27.60;97.20;;;;;;20586721;28;20743;-80
2022/06/29 11:25:46;;;;;;;1.52;0.50;;;26.90;96.90;;;;;;20623278;28;20049;-80
2022/06/29 11:35:48;;;;;;;0.80;0.30;;;26.60;97.40;;;;;;20585086;28;20051;-79
2022/06/29 11:45:51;;;;;;;0.52;0.20;;;26.40;98.00;;;;;;20616447;28;20449;-80
2022/06/29 11:55:57;;;;;;;0.47;0.20;;;26.50;97.80;;;;;;20621222;28;20057;-81
2022/06/29 12:06:00;;;;;;;0.67;0.30;;;26.90;96.50;;;;;;20594606;28;20752;-81
2022/06/29 12:16:01;;;;;;;3.10;0.68;;;26.90;96.80;;;;;;20591268;28;20049;-81
2022/06/29 12:26:02;;;;;;;1.00;0.50;;;27.30;96.40;;;;;;20623705;28;20038;-80
2022/06/29 12:36:03;;;;;;;0.90;0.30;;;26.80;97.30;;;;;;20588789;28;20057;-81
2022/06/29 12:46:04;;;;;;;1.33;0.32;;;26.60;99.10;;;;;;20587930;28;20042;-84
2022/06/29 12:56:06;;;;;;;1.60;0.40;;;26.90;98.40;;;;;;20602802;28;20046;-82
2022/06/29 13:06:07;;;;;;;1.38;0.47;;;27.30;97.10;;;;;;20639229;28;20358;-80
2022/06/29 13:16:08;;;;;;;1.15;0.60;;;27.50;97.70;;;;;;20638014;28;22580;-81
2022/06/29 13:26:11;;;;;;;0.80;0.50;;;27.40;97.50;;;;;;20620893;28;20047;-82
2022/06/29 13:36:12;;;;;;;0.85;0.45;;;27.70;98.60;;;;;;20620236;28;20050;-81
2022/06/29 13:46:13;;;;;;;0.80;0.40;;;28.20;96.20;;;;;;20635851;28;20055;-81
2022/06/29 13:56:14;;;;;;;45.40;1.88;;;28.10;96.40;;;;;;20654990;28;20045;-86
2022/06/29 14:06:16;;;;;;;1.85;0.82;;;27.60;99.90;;;;;;20633536;28;20042;-83
2022/06/29 14:16:17;;;;;;;1.13;0.40;;;27.20;99.90;;;;;;20641740;28;20076;-83
2022/06/29 14:26:18;;;;;;;7.30;1.05;;;27.00;99.90;;;;;;20612960;28;20057;-80
2022/06/29 14:36:19;;;;;;;1.52;0.70;;;26.50;99.90;;;;;;20644416;28;20038;-81
2022/06/29 14:46:26;;;;;;;2.83;1.30;;;26.30;99.90;;;;;;20637927;28;20045;-86
2022/06/29 14:56:27;;;;;;;1.30;0.50;;;25.90;99.90;;;;;;20635803;28;20049;-81
2022/06/29 15:06:28;;;;;;;1.13;0.35;;;25.40;99.90;;;;;;20664402;28;20041;-82
2022/06/29 15:16:29;;;;;;;1.33;0.60;;;25.10;99.90;;;;;;20678475;28;20045;-81
2022/06/29 15:26:30;;;;;;;1.05;0.60;;;25.10;99.90;;;;;;20670428;28;20049;-81
2022/06/29 15:46:51;;;;;;;0.88;0.40;;;25.60;99.90;;;;;;20686899;28;20053;-80
2022/06/29 15:56:54;;;;;;;1.00;0.60;;;25.60;99.90;;;;;;20662772;28;20046;-80
2022/06/29 16:06:55;;;;;;;8.15;0.63;;;25.30;99.90;;;;;;20691634;28;20407;-80
2022/06/29 16:16:56;;;;;;;0.95;0.32;;;25.20;99.90;;;;;;20662071;28;20042;-81
2022/06/29 16:26:58;;;;;;;2.75;0.50;;;25.30;99.90;;;;;;20673845;28;20050;-82
2022/06/29 16:36:59;;;;;;;0.40;0.28;;;25.40;99.90;;;;;;20673883;28;20038;-83
2022/06/29 16:47:01;;;;;;;1.35;0.68;;;25.40;99.90;;;;;;20658672;28;20062;-81
2022/06/29 16:57:02;;;;;;;1.30;0.68;;;25.20;99.90;;;;;;20678402;28;20042;-82
2022/06/29 17:07:08;;;;;;;1.90;0.77;;;25.20;99.90;;;;;;20669394;28;20105;-87
2022/06/29 17:17:09;;;;;;;2.13;0.40;;;25.10;99.90;;;;;;20697832;28;20712;-81
2022/06/29 17:27:11;;;;;;;1.95;0.65;;;25.10;99.90;;;;;;20668605;28;20054;-80
2022/06/29 17:37:12;;;;;;;1.80;0.50;;;25.00;99.90;;;;;;20681466;28;20037;-81
2022/06/29 17:47:13;;;;;;;1.55;0.85;;;24.90;99.90;;;;;;20678790;28;20034;-82
2022/06/29 17:57:15;;;;;;;1.23;0.63;;;24.70;99.90;;;;;;20683823;28;20062;-81
2022/06/29 18:07:16;;;;;;;1.10;0.50;;;24.50;99.90;;;;;;20687876;28;20038;-81
2022/06/29 18:17:18;;;;;;;5.57;1.90;;;24.20;99.90;;;;;;20656360;28;20050;-81
2022/06/29 18:27:20;;;;;;;1.02;0.60;;;24.00;99.90;;;;;;20691098;28;20065;-82
2022/06/29 18:37:21;;;;;;;1.27;0.70;;;23.80;99.90;;;;;;20683965;28;20057;-82
2022/06/29 18:47:22;;;;;;;1.48;0.50;;;23.60;99.90;;;;;;20669911;28;20057;-82
2022/06/29 18:57:23;;;;;;;1.10;0.38;;;23.50;99.90;;;;;;20702545;28;20067;-82
2022/06/29 19:07:24;;;;;;;1.20;0.50;;;23.30;99.90;;;;;;20669598;28;20042;-82
2022/06/29 19:17:26;;;;;;;1.88;0.63;;;23.10;99.90;;;;;;20683533;28;20662;-82
2022/06/29 19:27:27;;;;;;;1.25;0.50;;;22.90;99.90;;;;;;20683359;28;20047;-81
2022/06/29 19:37:28;;;;;;;1.67;0.55;;;22.80;99.90;;;;;;20692151;28;20474;-82
2022/06/29 19:47:30;;;;;;;3.92;0.95;;;22.60;99.90;;;;;;20674672;28;20066;-81
2022/06/29 19:57:31;;;;;;;2.05;0.68;;;22.50;99.90;;;;;;20675770;28;20944;-82
2022/06/29 20:07:32;;;;;;;1.88;0.70;;;22.40;99.90;;;;;;20661988;28;20048;-82
2022/06/29 20:17:33;;;;;;;3.10;0.80;;;22.20;99.90;;;;;;20668456;28;20042;-82
2022/06/29 20:27:35;;;;;;;2.47;0.65;;;22.10;99.90;;;;;;20703579;28;20038;-82
2022/06/29 20:37:36;;;;;;;2.22;0.80;;;21.90;99.90;;;;;;20643603;28;20043;-82
2022/06/29 20:47:37;;;;;;;1.33;0.77;;;21.70;99.90;;;;;;20671735;28;20042;-80
2022/06/29 20:57:40;;;;;;;1.35;0.68;;;21.60;99.90;;;;;;20684987;28;20045;-80
2022/06/29 21:07:41;;;;;;;1.80;1.00;;;21.40;99.90;;;;;;20662048;28;20037;-80
2022/06/29 21:17:42;;;;;;;2.65;0.95;;;21.30;99.90;;;;;;20645849;28;20127;-81
2022/06/29 21:27:43;;;;;;;1.20;0.60;;;21.10;99.90;;;;;;20666075;28;20119;-80
2022/06/29 21:37:44;;;;;;;2.67;1.38;;;21.00;99.90;;;;;;20659486;28;20050;-80
2022/06/29 21:47:47;;;;;;;1.55;0.68;;;20.80;99.90;;;;;;20659248;28;20049;-81
2022/06/29 21:57:48;;;;;;;2.50;0.90;;;20.70;99.90;;;;;;20670077;28;20061;-81
2022/06/29 22:07:49;;;;;;;2.20;1.15;;;20.50;99.90;;;;;;20650081;28;20437;-81
2022/06/29 22:17:50;;;;;;;2.40;1.40;;;20.50;99.90;;;;;;20660020;28;20049;-81
2022/06/29 22:27:54;;;;;;;2.10;1.15;;;20.40;99.90;;;;;;20664000;28;20041;-81
2022/06/29 22:37:55;;;;;;;3.33;1.63;;;20.40;99.90;;;;;;20694136;28;20836;-81
2022/06/29 22:47:56;;;;;;;3.97;1.70;;;20.30;99.90;;;;;;20660913;28;20068;-81
2022/06/29 22:57:57;;;;;;;4.28;2.33;;;20.20;99.90;;;;;;20678706;28;20045;-81
2022/06/29 23:07:58;;;;;;;3.63;1.70;;;20.10;99.90;;;;;;20712751;28;20124;-81
2022/06/29 23:17:59;;;;;;;2.60;1.38;;;20.10;99.90;;;;;;20675815;28;20505;-81
2022/06/29 23:28:00;;;;;;;2.67;1.55;;;20.00;99.90;;;;;;20665452;28;20498;-81
2022/06/29 23:38:02;;;;;;;3.63;1.80;;;19.80;99.90;;;;;;20631457;28;20050;-81
2022/06/29 23:48:03;;;;;;;5.25;3.08;;;19.70;99.90;;;;;;20643689;28;20049;-81
2022/06/29 23:58:04;;;;;;;12.27;2.30;;;19.60;99.90;;;;;;20633129;28;20053;-81
